Time;durP1;ratioP1;P1;durP2;ratioP2;P2;SDS_P1;SDS_P2;PMS_P1;PMS_P2;Temp;Humidity;BMP_temperature;BMP_pressure;BME280_temperature;BME280_humidity;BME280_pressure;Samples;Min_cycle;Max_cycle;Signal;HPM_P1;HPM_P2
2021/05/28 00:01:16;;;;;;;2.88;2.55;;;;;;;;;;5025565;28;20038;-49
2021/05/28 00:03:42;;;;;;;6.63;3.03;;;;;;;;;;5022713;28;20033;-48
2021/05/28 00:06:08;;;;;;;4.30;3.03;;;;;;;;;;5030501;28;20037;-49
2021/05/28 00:08:34;;;;;;;5.97;3.45;;;;;;;;;;5026572;28;20469;-47
2021/05/28 00:11:00;;;;;;;4.13;3.22;;;;;;;;;;5009328;28;20041;-47
2021/05/28 00:13:26;;;;;;;4.10;2.80;;;;;;;;;;5014458;28;20493;-48
2021/05/28 00:15:52;;;;;;;5.00;3.30;;;;;;;;;;5030822;28;20125;-47
2021/05/28 00:18:18;;;;;;;7.25;2.85;;;;;;;;;;5028828;28;20071;-48
2021/05/28 00:20:44;;;;;;;6.63;2.95;;;;;;;;;;5025885;28;20097;-47
2021/05/28 00:23:10;;;;;;;5.63;3.60;;;;;;;;;;5019311;28;20149;-48
2021/05/28 00:25:36;;;;;;;4.82;2.90;;;;;;;;;;5006802;28;20072;-50
2021/05/28 00:28:02;;;;;;;5.43;3.03;;;;;;;;;;5021787;28;20044;-48
2021/05/28 00:30:28;;;;;;;6.22;3.08;;;;;;;;;;5017521;28;20505;-50
2021/05/28 00:32:54;;;;;;;3.90;3.20;;;;;;;;;;5021497;28;20030;-48
2021/05/28 00:35:20;;;;;;;4.30;3.10;;;;;;;;;;5032092;28;20147;-47
2021/05/28 00:37:46;;;;;;;4.25;3.40;;;;;;;;;;5017667;28;20034;-51
2021/05/28 00:40:13;;;;;;;5.05;3.50;;;;;;;;;;5016000;28;20021;-48
2021/05/28 00:42:39;;;;;;;8.35;3.20;;;;;;;;;;5025253;28;20017;-48
2021/05/28 00:45:05;;;;;;;4.53;3.65;;;;;;;;;;5021960;28;20042;-47
2021/05/28 00:47:31;;;;;;;6.38;3.70;;;;;;;;;;5017609;28;20474;-48
2021/05/28 00:49:57;;;;;;;4.45;3.10;;;;;;;;;;5017526;28;20030;-48
2021/05/28 00:52:23;;;;;;;4.07;3.00;;;;;;;;;;5016792;28;20030;-48
2021/05/28 00:54:49;;;;;;;10.38;3.88;;;;;;;;;;5025516;28;20029;-48
2021/05/28 00:57:15;;;;;;;4.35;3.95;;;;;;;;;;5020270;28;20397;-48
2021/05/28 00:59:42;;;;;;;5.60;3.60;;;;;;;;;;5015371;28;20049;-48
2021/05/28 01:02:08;;;;;;;6.18;3.50;;;;;;;;;;5016165;28;20032;-49
2021/05/28 01:04:34;;;;;;;6.10;4.30;;;;;;;;;;5015939;28;20637;-48
2021/05/28 01:07:00;;;;;;;4.72;3.75;;;;;;;;;;5015602;28;20029;-47
2021/05/28 01:09:26;;;;;;;5.35;3.38;;;;;;;;;;5016983;28;20121;-48
2021/05/28 01:11:52;;;;;;;7.05;4.00;;;;;;;;;;5019747;28;20018;-49
2021/05/28 01:14:18;;;;;;;7.03;3.90;;;;;;;;;;5016127;28;20488;-50
2021/05/28 01:16:44;;;;;;;9.00;4.07;;;;;;;;;;5015070;28;20029;-48
2021/05/28 01:19:10;;;;;;;7.30;4.18;;;;;;;;;;5015166;28;20041;-47
2021/05/28 01:21:36;;;;;;;6.07;3.92;;;;;;;;;;5015700;28;20025;-48
2021/05/28 01:24:03;;;;;;;3.95;3.45;;;;;;;;;;5032461;28;20108;-47
2021/05/28 01:26:29;;;;;;;5.00;4.00;;;;;;;;;;5004973;28;20042;-48
2021/05/28 01:28:55;;;;;;;6.05;4.28;;;;;;;;;;5014952;28;20474;-48
2021/05/28 01:31:21;;;;;;;8.25;3.83;;;;;;;;;;5015146;28;20046;-51
2021/05/28 01:33:47;;;;;;;4.28;3.80;;;;;;;;;;5019007;28;20513;-48
2021/05/28 01:36:13;;;;;;;9.40;4.05;;;;;;;;;;5019585;28;20029;-48
2021/05/28 01:38:39;;;;;;;7.78;4.13;;;;;;;;;;5014933;28;20691;-48
2021/05/28 01:41:06;;;;;;;8.32;4.43;;;;;;;;;;5016209;28;20061;-48
2021/05/28 01:43:32;;;;;;;6.45;4.43;;;;;;;;;;5015189;28;20033;-48
2021/05/28 01:45:58;;;;;;;5.50;4.22;;;;;;;;;;5014327;28;20033;-47
2021/05/28 01:48:24;;;;;;;4.50;4.10;;;;;;;;;;5020225;28;20528;-47
2021/05/28 01:50:52;;;;;;;6.85;4.35;;;;;;;;;;5018631;28;20182;-49
2021/05/28 01:53:19;;;;;;;5.75;4.10;;;;;;;;;;5014337;28;20045;-48
2021/05/28 01:55:45;;;;;;;5.70;4.22;;;;;;;;;;5021315;28;20505;-48
2021/05/28 01:58:12;;;;;;;4.40;3.92;;;;;;;;;;5014528;28;20105;-48
2021/05/28 02:00:39;;;;;;;5.80;3.88;;;;;;;;;;5015383;28;20022;-48
2021/05/28 02:03:05;;;;;;;6.03;4.35;;;;;;;;;;5014548;28;20034;-48
2021/05/28 02:05:32;;;;;;;4.47;4.05;;;;;;;;;;5023095;28;20033;-49
2021/05/28 02:07:58;;;;;;;6.32;3.85;;;;;;;;;;5014208;28;20549;-48
2021/05/28 02:10:24;;;;;;;7.15;4.15;;;;;;;;;;5004719;28;20424;-50
2021/05/28 02:12:52;;;;;;;7.03;4.53;;;;;;;;;;5013100;28;20034;-48
2021/05/28 02:15:18;;;;;;;9.25;4.70;;;;;;;;;;5024040;28;20073;-49
2021/05/28 02:17:44;;;;;;;5.00;4.10;;;;;;;;;;5020327;28;20468;-48
2021/05/28 02:20:10;;;;;;;5.85;4.38;;;;;;;;;;5015486;28;20026;-48
2021/05/28 02:22:36;;;;;;;7.05;3.83;;;;;;;;;;5014149;28;20022;-50
2021/05/28 02:25:03;;;;;;;6.00;4.18;;;;;;;;;;5016061;28;20034;-48
2021/05/28 02:27:29;;;;;;;6.47;4.32;;;;;;;;;;5003942;28;20138;-47
2021/05/28 02:29:55;;;;;;;5.38;4.30;;;;;;;;;;5013454;28;20050;-47
2021/05/28 02:32:21;;;;;;;5.35;3.58;;;;;;;;;;5014559;28;20025;-48
2021/05/28 02:34:47;;;;;;;7.63;3.17;;;;;;;;;;5016522;28;20037;-48
2021/05/28 02:37:13;;;;;;;3.63;3.00;;;;;;;;;;5014458;28;20104;-48
2021/05/28 02:39:39;;;;;;;5.72;3.25;;;;;;;;;;5013506;28;20425;-48
2021/05/28 02:42:05;;;;;;;5.50;3.22;;;;;;;;;;5016112;28;20151;-49
2021/05/28 02:44:31;;;;;;;5.30;2.95;;;;;;;;;;5016153;28;20049;-49
2021/05/28 02:46:57;;;;;;;4.72;2.90;;;;;;;;;;5013183;28;20030;-50
2021/05/28 02:49:23;;;;;;;5.53;3.50;;;;;;;;;;5016243;28;20037;-47
2021/05/28 02:51:49;;;;;;;8.35;2.67;;;;;;;;;;5023100;28;20048;-47
2021/05/28 02:54:15;;;;;;;4.72;2.67;;;;;;;;;;5017338;28;20034;-48
2021/05/28 02:56:41;;;;;;;2.78;2.25;;;;;;;;;;5022171;28;20632;-47
2021/05/28 02:59:07;;;;;;;3.30;2.60;;;;;;;;;;5013262;28;20034;-48
2021/05/28 03:01:33;;;;;;;4.65;2.78;;;;;;;;;;5013051;28;20061;-49
2021/05/28 03:03:59;;;;;;;4.35;2.15;;;;;;;;;;5013259;28;20026;-47
2021/05/28 03:06:25;;;;;;;2.42;2.10;;;;;;;;;;5020815;28;20025;-49
2021/05/28 03:08:51;;;;;;;4.72;2.90;;;;;;;;;;5013501;28;20018;-49
2021/05/28 03:11:17;;;;;;;4.50;2.22;;;;;;;;;;5013758;28;20030;-49
2021/05/28 03:13:43;;;;;;;4.13;2.35;;;;;;;;;;5012932;28;20462;-49
2021/05/28 03:16:09;;;;;;;4.22;2.08;;;;;;;;;;5016491;28;20038;-50
2021/05/28 03:18:58;;;;;;;5.88;2.10;;;;;;;;;;5015191;28;20037;-48
2021/05/28 03:21:36;;;;;;;5.90;2.15;;;;;;;;;;5018909;28;20096;-49
2021/05/28 03:24:03;;;;;;;2.40;1.90;;;;;;;;;;5004614;28;20464;-50
2021/05/28 03:26:30;;;;;;;5.35;2.10;;;;;;;;;;5002755;28;20081;-49
2021/05/28 03:28:56;;;;;;;3.13;2.13;;;;;;;;;;5007061;28;20030;-48
2021/05/28 03:31:23;;;;;;;4.63;1.80;;;;;;;;;;5012692;28;20245;-52
2021/05/28 03:33:49;;;;;;;4.00;2.40;;;;;;;;;;5013209;28;20030;-48
2021/05/28 03:36:16;;;;;;;3.78;1.95;;;;;;;;;;5015037;28;20466;-47
2021/05/28 03:38:42;;;;;;;6.38;2.17;;;;;;;;;;5013063;28;20033;-47
2021/05/28 03:41:09;;;;;;;2.90;2.10;;;;;;;;;;5012755;28;20022;-48
2021/05/28 03:43:35;;;;;;;2.50;2.30;;;;;;;;;;5013614;28;20022;-48
2021/05/28 03:46:01;;;;;;;5.85;2.30;;;;;;;;;;5015150;28;20057;-47
2021/05/28 03:48:27;;;;;;;2.65;2.22;;;;;;;;;;5012312;28;20428;-49
2021/05/28 03:50:53;;;;;;;3.22;2.35;;;;;;;;;;5023151;28;20129;-48
2021/05/28 03:53:19;;;;;;;5.80;2.47;;;;;;;;;;5012523;28;20111;-49
2021/05/28 03:55:46;;;;;;;3.67;2.33;;;;;;;;;;5021923;28;20476;-49
2021/05/28 03:58:12;;;;;;;4.60;2.38;;;;;;;;;;5021110;28;20113;-49
2021/05/28 04:00:38;;;;;;;4.18;2.55;;;;;;;;;;5013353;28;20101;-51
2021/05/28 04:03:04;;;;;;;3.22;2.45;;;;;;;;;;5012542;28;20359;-47
2021/05/28 04:05:30;;;;;;;3.72;2.15;;;;;;;;;;5011414;28;20164;-49
2021/05/28 04:07:56;;;;;;;3.83;2.38;;;;;;;;;;5012563;28;20144;-52
2021/05/28 04:10:22;;;;;;;5.07;2.53;;;;;;;;;;5024009;28;20480;-49
2021/05/28 04:12:48;;;;;;;4.78;2.63;;;;;;;;;;5008866;28;20104;-48
2021/05/28 04:15:15;;;;;;;5.43;2.50;;;;;;;;;;5011398;28;20025;-49
2021/05/28 04:17:41;;;;;;;3.47;2.50;;;;;;;;;;5017929;28;20022;-48
2021/05/28 04:20:07;;;;;;;6.82;2.30;;;;;;;;;;5026789;28;20029;-49
2021/05/28 04:22:33;;;;;;;4.15;2.40;;;;;;;;;;5013148;28;20104;-48
2021/05/28 04:24:59;;;;;;;4.97;2.45;;;;;;;;;;5027013;28;20018;-48
2021/05/28 04:27:25;;;;;;;4.07;2.17;;;;;;;;;;5016715;28;20033;-48
2021/05/28 04:29:51;;;;;;;4.22;2.70;;;;;;;;;;5020692;28;20073;-49
2021/05/28 04:32:17;;;;;;;5.28;2.40;;;;;;;;;;5010439;28;20458;-49
2021/05/28 04:34:43;;;;;;;2.92;2.25;;;;;;;;;;5017137;28;20362;-48
2021/05/28 04:37:09;;;;;;;8.05;2.20;;;;;;;;;;5019891;28;20544;-48
2021/05/28 04:39:35;;;;;;;4.95;2.67;;;;;;;;;;5018871;28;20100;-48
2021/05/28 04:42:01;;;;;;;9.63;3.03;;;;;;;;;;5014143;28;20506;-47
2021/05/28 04:44:27;;;;;;;3.38;2.70;;;;;;;;;;5015553;28;20033;-48
2021/05/28 04:46:54;;;;;;;10.25;3.10;;;;;;;;;;5011732;28;20508;-48
2021/05/28 04:49:20;;;;;;;5.43;2.53;;;;;;;;;;5007753;28;20037;-48
2021/05/28 04:51:46;;;;;;;2.63;2.42;;;;;;;;;;5027794;28;20068;-48
2021/05/28 04:54:12;;;;;;;8.05;3.10;;;;;;;;;;5024462;28;20073;-48
2021/05/28 04:56:38;;;;;;;5.78;3.08;;;;;;;;;;5011485;28;20029;-48
2021/05/28 04:59:04;;;;;;;5.63;3.78;;;;;;;;;;5011066;28;20045;-51
2021/05/28 05:01:30;;;;;;;4.43;2.60;;;;;;;;;;5010187;28;20065;-49
2021/05/28 05:03:56;;;;;;;4.65;2.78;;;;;;;;;;5011263;28;20382;-48
2021/05/28 05:06:25;;;;;;;6.00;2.72;;;;;;;;;;5009802;28;20041;-52
2021/05/28 05:08:51;;;;;;;2.90;2.60;;;;;;;;;;5017011;28;20558;-50
2021/05/28 05:11:17;;;;;;;3.15;2.60;;;;;;;;;;5008027;28;20022;-48
2021/05/28 05:13:43;;;;;;;6.25;3.03;;;;;;;;;;5012899;28;20033;-48
2021/05/28 05:16:09;;;;;;;3.47;2.42;;;;;;;;;;5013532;28;20041;-51
2021/05/28 05:18:35;;;;;;;5.25;2.60;;;;;;;;;;5014129;28;20407;-49
2021/05/28 05:21:01;;;;;;;7.63;3.08;;;;;;;;;;5027201;28;20026;-48
2021/05/28 05:23:30;;;;;;;4.78;2.58;;;;;;;;;;5014405;28;20040;-50
2021/05/28 05:25:56;;;;;;;4.78;2.97;;;;;;;;;;5012362;28;20034;-48
2021/05/28 05:28:23;;;;;;;3.58;3.20;;;;;;;;;;5008850;28;20794;-51
2021/05/28 05:30:49;;;;;;;5.78;2.95;;;;;;;;;;5019321;28;20042;-50
2021/05/28 05:33:15;;;;;;;4.82;2.72;;;;;;;;;;5019105;28;20466;-49
2021/05/28 05:35:41;;;;;;;5.15;3.00;;;;;;;;;;5028354;28;20025;-48
2021/05/28 05:38:10;;;;;;;5.43;2.85;;;;;;;;;;5015527;28;20026;-48
2021/05/28 05:40:37;;;;;;;4.63;2.60;;;;;;;;;;5013572;28;20104;-48
2021/05/28 05:43:03;;;;;;;8.27;2.95;;;;;;;;;;5011113;28;20021;-48
2021/05/28 05:45:29;;;;;;;6.45;2.70;;;;;;;;;;5022204;28;20078;-49
2021/05/28 05:47:55;;;;;;;3.80;2.42;;;;;;;;;;5015514;28;20125;-49
2021/05/28 05:50:22;;;;;;;4.45;2.63;;;;;;;;;;5018003;28;20057;-52
2021/05/28 05:52:48;;;;;;;5.13;2.88;;;;;;;;;;5022676;28;20101;-50
2021/05/28 05:55:15;;;;;;;4.50;2.90;;;;;;;;;;5019051;28;20116;-49
2021/05/28 05:57:41;;;;;;;7.35;2.80;;;;;;;;;;5019931;28;20160;-52
2021/05/28 06:00:08;;;;;;;6.30;2.78;;;;;;;;;;5013000;28;20022;-50
2021/05/28 06:02:34;;;;;;;7.30;3.53;;;;;;;;;;5027201;28;20469;-49
2021/05/28 06:05:00;;;;;;;4.00;3.05;;;;;;;;;;5007601;28;20057;-49
2021/05/28 06:07:26;;;;;;;3.95;3.03;;;;;;;;;;5015732;28;20036;-50
2021/05/28 06:09:52;;;;;;;6.28;3.15;;;;;;;;;;5021044;28;20034;-49
2021/05/28 06:12:18;;;;;;;3.38;2.58;;;;;;;;;;5022570;28;20040;-49
2021/05/28 06:14:44;;;;;;;4.57;2.92;;;;;;;;;;5014361;28;20125;-48
2021/05/28 06:17:10;;;;;;;4.28;2.45;;;;;;;;;;5013988;28;20029;-50
2021/05/28 06:19:36;;;;;;;8.57;4.05;;;;;;;;;;5014358;28;20038;-51
2021/05/28 06:22:02;;;;;;;5.00;3.10;;;;;;;;;;5012088;28;20161;-52
2021/05/28 06:24:28;;;;;;;5.35;2.65;;;;;;;;;;5013115;28;20034;-51
2021/05/28 06:26:54;;;;;;;4.13;2.38;;;;;;;;;;5003660;28;20030;-49
2021/05/28 06:29:20;;;;;;;4.22;2.40;;;;;;;;;;5013721;28;20034;-51
2021/05/28 06:31:46;;;;;;;6.38;2.92;;;;;;;;;;5013930;28;20037;-48
2021/05/28 06:34:12;;;;;;;6.78;2.50;;;;;;;;;;5013284;28;20040;-48
2021/05/28 06:36:38;;;;;;;5.93;2.78;;;;;;;;;;5012794;28;20026;-53
2021/05/28 06:39:05;;;;;;;3.45;2.28;;;;;;;;;;5012356;28;20033;-53
2021/05/28 06:41:31;;;;;;;5.10;2.65;;;;;;;;;;5011370;28;20030;-48
2021/05/28 06:43:57;;;;;;;3.85;2.35;;;;;;;;;;5016637;28;20116;-48
2021/05/28 06:46:23;;;;;;;3.72;2.50;;;;;;;;;;5011678;28;20517;-51
2021/05/28 06:48:49;;;;;;;5.47;2.58;;;;;;;;;;5011670;28;20037;-48
2021/05/28 06:51:15;;;;;;;3.40;2.33;;;;;;;;;;5009937;28;20028;-51
2021/05/28 06:53:42;;;;;;;5.45;2.50;;;;;;;;;;5013059;28;20030;-49
2021/05/28 06:56:08;;;;;;;5.60;2.47;;;;;;;;;;5015936;28;20502;-50
2021/05/28 06:58:34;;;;;;;6.30;2.63;;;;;;;;;;5014809;28;20030;-48
2021/05/28 07:01:00;;;;;;;6.05;2.63;;;;;;;;;;5012440;28;20046;-50
2021/05/28 07:03:26;;;;;;;5.30;2.38;;;;;;;;;;5012293;28;20739;-53
2021/05/28 07:05:52;;;;;;;3.92;2.15;;;;;;;;;;5012865;28;20029;-50
2021/05/28 07:08:18;;;;;;;7.20;2.85;;;;;;;;;;5010194;28;20461;-48
2021/05/28 07:10:44;;;;;;;3.90;2.50;;;;;;;;;;5011226;28;20029;-52
2021/05/28 07:13:11;;;;;;;4.55;2.20;;;;;;;;;;5011740;28;20037;-49
2021/05/28 07:15:38;;;;;;;8.55;3.10;;;;;;;;;;5011767;28;20054;-49
2021/05/28 07:18:05;;;;;;;5.40;2.60;;;;;;;;;;5010573;28;20571;-48
2021/05/28 07:20:31;;;;;;;4.28;2.40;;;;;;;;;;5015125;28;20034;-49
2021/05/28 07:22:57;;;;;;;5.22;2.47;;;;;;;;;;5011607;28;20048;-50
2021/05/28 07:25:23;;;;;;;4.05;2.10;;;;;;;;;;5007748;28;20029;-50
2021/05/28 07:27:49;;;;;;;4.22;2.65;;;;;;;;;;5010118;28;20036;-50
2021/05/28 07:30:16;;;;;;;4.13;2.60;;;;;;;;;;5011242;28;20481;-49
2021/05/28 07:32:41;;;;;;;3.70;2.15;;;;;;;;;;5011416;28;20065;-49
2021/05/28 07:35:08;;;;;;;3.63;2.00;;;;;;;;;;5010092;28;20173;-48
2021/05/28 07:37:34;;;;;;;3.88;2.28;;;;;;;;;;5011737;28;20071;-51
2021/05/28 07:40:01;;;;;;;2.65;2.08;;;;;;;;;;5004592;28;20030;-49
2021/05/28 07:42:27;;;;;;;4.28;2.47;;;;;;;;;;5017450;28;20048;-50
2021/05/28 07:44:53;;;;;;;4.72;2.05;;;;;;;;;;5013149;28;20030;-51
2021/05/28 07:47:18;;;;;;;2.97;1.90;;;;;;;;;;5011818;28;20519;-53
2021/05/28 07:49:44;;;;;;;7.03;2.70;;;;;;;;;;5013074;28;20074;-48
2021/05/28 07:52:10;;;;;;;3.55;2.55;;;;;;;;;;5021318;28;20038;-49
2021/05/28 07:54:37;;;;;;;3.53;1.98;;;;;;;;;;5025656;28;20076;-49
2021/05/28 07:57:03;;;;;;;7.00;1.95;;;;;;;;;;5013912;28;20181;-48
2021/05/28 07:59:30;;;;;;;3.65;2.15;;;;;;;;;;5020443;28;20037;-48
2021/05/28 08:01:56;;;;;;;3.08;2.10;;;;;;;;;;5018176;28;20034;-51
2021/05/28 08:04:22;;;;;;;4.10;2.10;;;;;;;;;;5026666;28;20034;-47
2021/05/28 08:06:48;;;;;;;2.58;1.67;;;;;;;;;;5030415;28;20032;-47
2021/05/28 08:09:14;;;;;;;2.13;1.50;;;;;;;;;;5021738;28;20457;-48
2021/05/28 08:11:41;;;;;;;5.75;1.35;;;;;;;;;;5022758;28;20026;-48
2021/05/28 08:14:06;;;;;;;2.88;1.75;;;;;;;;;;5012131;28;20034;-47
2021/05/28 08:16:33;;;;;;;9.00;2.25;;;;;;;;;;5011823;28;20260;-48
2021/05/28 08:18:59;;;;;;;4.15;1.60;;;;;;;;;;5012057;28;20421;-50
2021/05/28 08:21:25;;;;;;;3.85;1.95;;;;;;;;;;5022190;28;20028;-49
2021/05/28 08:23:51;;;;;;;5.30;2.30;;;;;;;;;;5018402;28;20430;-52
2021/05/28 08:26:17;;;;;;;2.25;1.60;;;;;;;;;;5015901;28;20116;-48
2021/05/28 08:28:43;;;;;;;2.13;1.60;;;;;;;;;;5013059;28;20124;-49
2021/05/28 08:31:10;;;;;;;3.50;1.80;;;;;;;;;;5025674;28;20121;-48
2021/05/28 08:33:38;;;;;;;4.22;1.30;;;;;;;;;;5018393;28;20452;-48
2021/05/28 08:36:04;;;;;;;3.75;1.52;;;;;;;;;;5023317;28;20669;-48
2021/05/28 08:38:30;;;;;;;2.28;1.67;;;;;;;;;;5018465;28;20018;-49
2021/05/28 08:40:56;;;;;;;2.70;1.50;;;;;;;;;;5015998;28;20033;-48
2021/05/28 08:43:22;;;;;;;3.75;1.70;;;;;;;;;;5017435;28;20481;-48
2021/05/28 08:45:48;;;;;;;3.45;1.75;;;;;;;;;;5015522;28;20394;-48
2021/05/28 08:48:15;;;;;;;4.70;1.60;;;;;;;;;;5031811;28;20032;-48
2021/05/28 08:50:42;;;;;;;3.65;1.73;;;;;;;;;;5024549;28;20113;-48
2021/05/28 08:53:10;;;;;;;2.90;1.48;;;;;;;;;;5023111;28;20049;-49
2021/05/28 08:55:37;;;;;;;5.00;1.70;;;;;;;;;;5027755;28;20045;-49
2021/05/28 08:58:04;;;;;;;4.78;1.95;;;;;;;;;;5032221;28;20025;-49
2021/05/28 09:00:31;;;;;;;3.00;1.42;;;;;;;;;;5022098;28;20029;-48
2021/05/28 09:02:57;;;;;;;3.33;1.30;;;;;;;;;;5032095;28;20093;-48
2021/05/28 09:05:25;;;;;;;2.38;1.55;;;;;;;;;;5016759;28;20529;-48
2021/05/28 09:07:53;;;;;;;3.55;1.40;;;;;;;;;;5033759;28;20033;-48
2021/05/28 09:10:37;;;;;;;1.98;1.20;;;;;;;;;;5035212;28;20022;-48
2021/05/28 09:13:21;;;;;;;8.80;1.55;;;;;;;;;;5011860;28;20112;-48
2021/05/28 09:15:47;;;;;;;1.90;1.45;;;;;;;;;;5025354;28;20060;-48
2021/05/28 09:18:14;;;;;;;2.88;1.60;;;;;;;;;;5024000;28;20053;-50
2021/05/28 09:20:40;;;;;;;2.33;1.63;;;;;;;;;;5022788;28;20056;-48
2021/05/28 09:23:17;;;;;;;2.28;1.40;;;;;;;;;;5012054;28;20409;-48
2021/05/28 09:26:01;;;;;;;3.15;1.63;;;;;;;;;;5021547;28;20036;-48
2021/05/28 09:28:27;;;;;;;1.95;1.58;;;;;;;;;;5028774;28;20036;-49
2021/05/28 09:30:57;;;;;;;4.03;1.60;;;;;;;;;;5014882;28;20046;-48
2021/05/28 09:33:24;;;;;;;4.32;1.40;;;;;;;;;;5017434;28;20026;-49
2021/05/28 09:35:50;;;;;;;3.10;1.50;;;;;;;;;;5031233;28;20492;-48
2021/05/28 09:38:20;;;;;;;2.38;1.45;;;;;;;;;;5025119;28;20045;-48
2021/05/28 09:40:47;;;;;;;2.15;1.42;;;;;;;;;;5025657;28;20025;-48
2021/05/28 09:43:14;;;;;;;2.88;1.30;;;;;;;;;;5019495;28;20034;-48
2021/05/28 09:45:41;;;;;;;3.33;1.67;;;;;;;;;;5015791;28;20026;-52
2021/05/28 09:48:16;;;;;;;2.80;1.60;;;;;;;;;;5024543;28;20473;-48
2021/05/28 09:50:59;;;;;;;2.17;1.30;;;;;;;;;;5017256;28;20030;-48
2021/05/28 09:53:45;;;;;;;2.67;1.40;;;;;;;;;;5016430;28;20034;-50
2021/05/28 09:56:34;;;;;;;1.90;1.33;;;;;;;;;;5019117;28;20030;-49
2021/05/28 09:59:06;;;;;;;3.15;1.08;;;;;;;;;;5021657;28;20030;-48
2021/05/28 10:01:33;;;;;;;7.68;1.25;;;;;;;;;;5015178;28;20466;-48
2021/05/28 10:04:00;;;;;;;2.75;1.20;;;;;;;;;;5019368;28;20028;-51
2021/05/28 10:06:27;;;;;;;2.40;1.13;;;;;;;;;;5030239;28;20063;-48
2021/05/28 10:08:54;;;;;;;1.05;0.80;;;;;;;;;;5020303;28;20176;-48
2021/05/28 10:11:20;;;;;;;1.25;1.00;;;;;;;;;;5015139;28;20033;-50
2021/05/28 10:13:46;;;;;;;1.83;0.95;;;;;;;;;;5024688;28;20113;-48
2021/05/28 10:16:14;;;;;;;3.20;1.10;;;;;;;;;;5015493;28;20089;-48
2021/05/28 10:18:40;;;;;;;1.92;0.77;;;;;;;;;;5027646;28;20084;-47
2021/05/28 10:21:06;;;;;;;1.65;1.08;;;;;;;;;;5029135;28;20109;-48
2021/05/28 10:23:32;;;;;;;5.00;1.17;;;;;;;;;;5032764;28;20029;-48
2021/05/28 10:25:59;;;;;;;1.75;1.00;;;;;;;;;;5014249;28;20033;-48
2021/05/28 10:28:30;;;;;;;5.05;1.00;;;;;;;;;;5018932;28;20066;-48
2021/05/28 10:30:56;;;;;;;1.42;0.90;;;;;;;;;;5015138;28;20049;-49
2021/05/28 10:33:28;;;;;;;1.60;0.93;;;;;;;;;;5015503;28;20029;-48
2021/05/28 10:35:59;;;;;;;1.05;0.80;;;;;;;;;;5023423;28;20087;-48
2021/05/28 10:38:33;;;;;;;1.25;0.60;;;;;;;;;;5025944;28;20049;-49
2021/05/28 10:41:05;;;;;;;4.00;1.02;;;;;;;;;;5023993;28;20469;-48
2021/05/28 10:43:51;;;;;;;2.70;0.90;;;;;;;;;;5023745;28;20040;-48
2021/05/28 10:46:21;;;;;;;6.07;1.15;;;;;;;;;;5025341;28;20448;-49
2021/05/28 10:48:46;;;;;;;1.17;0.80;;;;;;;;;;5014191;28;20474;-47
2021/05/28 10:51:23;;;;;;;2.55;0.80;;;;;;;;;;5020815;28;20032;-48
2021/05/28 10:53:52;;;;;;;2.30;0.68;;;;;;;;;;5017257;28;20482;-49
2021/05/28 10:56:19;;;;;;;1.83;0.90;;;;;;;;;;5026377;28;20466;-49
2021/05/28 10:59:01;;;;;;;2.28;0.95;;;;;;;;;;5011487;28;20412;-50
2021/05/28 11:01:33;;;;;;;0.82;0.68;;;;;;;;;;5013306;28;20018;-49
2021/05/28 11:04:03;;;;;;;1.60;0.85;;;;;;;;;;5013997;28;20518;-48
2021/05/28 11:06:30;;;;;;;2.17;0.70;;;;;;;;;;5020425;28;20034;-48
2021/05/28 11:09:09;;;;;;;0.93;0.80;;;;;;;;;;5019344;28;20502;-48
2021/05/28 11:11:43;;;;;;;4.03;0.85;;;;;;;;;;5013035;28;20403;-49
2021/05/28 11:14:09;;;;;;;0.95;0.80;;;;;;;;;;5013847;28;20029;-50
2021/05/28 11:16:55;;;;;;;0.80;0.80;;;;;;;;;;5025105;28;20099;-48
2021/05/28 11:19:31;;;;;;;2.55;0.63;;;;;;;;;;5021814;28;20029;-48
2021/05/28 11:22:00;;;;;;;0.70;0.70;;;;;;;;;;5022378;28;20128;-50
2021/05/28 11:24:42;;;;;;;1.52;0.60;;;;;;;;;;5017610;28;20022;-49
2021/05/28 11:27:15;;;;;;;1.20;0.90;;;;;;;;;;5012807;28;20025;-48
2021/05/28 11:29:41;;;;;;;1.52;0.68;;;;;;;;;;5014007;28;20113;-48
2021/05/28 11:32:26;;;;;;;4.00;1.05;;;;;;;;;;5025359;28;20034;-49
2021/05/28 11:35:10;;;;;;;2.78;0.93;;;;;;;;;;5029069;28;20121;-48
2021/05/28 11:37:38;;;;;;;2.45;1.00;;;;;;;;;;5024417;28;20493;-48
2021/05/28 11:40:20;;;;;;;3.63;1.00;;;;;;;;;;5013499;28;20105;-48
2021/05/28 11:42:47;;;;;;;2.90;1.02;;;;;;;;;;5011379;28;20030;-48
2021/05/28 11:45:14;;;;;;;2.75;0.73;;;;;;;;;;5011635;28;20041;-48
2021/05/28 11:47:40;;;;;;;2.38;0.93;;;;;;;;;;5009010;28;20018;-48
2021/05/28 11:50:08;;;;;;;2.25;0.90;;;;;;;;;;5016147;28;20335;-49
2021/05/28 11:52:34;;;;;;;2.70;0.98;;;;;;;;;;5020520;28;20441;-48
2021/05/28 11:55:04;;;;;;;5.35;0.90;;;;;;;;;;5013029;28;20421;-48
2021/05/28 11:57:30;;;;;;;1.90;0.90;;;;;;;;;;5024686;28;20029;-48
2021/05/28 11:59:57;;;;;;;1.20;0.77;;;;;;;;;;5025488;28;20079;-48
2021/05/28 12:02:38;;;;;;;3.38;0.82;;;;;;;;;;5023201;28;20056;-49
2021/05/28 12:05:06;;;;;;;2.47;0.85;;;;;;;;;;5020341;28;20037;-48
2021/05/28 12:07:32;;;;;;;1.13;0.70;;;;;;;;;;5026243;28;20033;-49
2021/05/28 12:10:02;;;;;;;1.90;1.02;;;;;;;;;;5020838;28;20095;-48
2021/05/28 12:12:28;;;;;;;1.88;0.98;;;;;;;;;;5021938;28;20037;-50
2021/05/28 12:15:09;;;;;;;2.03;0.88;;;;;;;;;;5008176;28;20030;-49
2021/05/28 12:17:35;;;;;;;2.58;0.75;;;;;;;;;;5011860;28;20485;-49
2021/05/28 12:20:34;;;;;;;1.25;0.90;;;;;;;;;;5011058;28;20034;-50
2021/05/28 12:23:00;;;;;;;3.08;0.80;;;;;;;;;;5016168;28;20099;-50
2021/05/28 12:25:27;;;;;;;1.38;1.02;;;;;;;;;;5017154;28;20091;-51
2021/05/28 12:27:54;;;;;;;4.03;0.60;;;;;;;;;;5030776;28;20045;-50
2021/05/28 12:30:24;;;;;;;1.67;1.05;;;;;;;;;;5017981;28;20067;-50
2021/05/28 12:32:50;;;;;;;4.45;1.23;;;;;;;;;;5011218;28;20030;-48
2021/05/28 12:35:16;;;;;;;1.90;1.00;;;;;;;;;;5015877;28;20829;-49
2021/05/28 12:38:01;;;;;;;1.73;0.70;;;;;;;;;;5012138;28;20117;-51
2021/05/28 12:40:27;;;;;;;3.65;1.27;;;;;;;;;;5031216;28;20096;-51
2021/05/28 12:43:00;;;;;;;2.00;0.93;;;;;;;;;;5016916;28;20466;-49
2021/05/28 12:45:36;;;;;;;2.42;0.90;;;;;;;;;;5009358;28;20033;-52
2021/05/28 12:48:03;;;;;;;2.63;1.10;;;;;;;;;;5013254;28;20038;-51
2021/05/28 12:50:33;;;;;;;3.92;1.08;;;;;;;;;;5022228;28;20030;-53
2021/05/28 12:53:00;;;;;;;4.05;1.33;;;;;;;;;;5024665;28;20040;-50
2021/05/28 12:55:30;;;;;;;1.63;0.85;;;;;;;;;;5020112;28;20048;-50
2021/05/28 12:57:56;;;;;;;1.15;0.73;;;;;;;;;;5016279;28;20116;-48
2021/05/28 13:00:38;;;;;;;3.08;0.80;;;;;;;;;;5019974;28;20455;-48
2021/05/28 13:03:04;;;;;;;1.70;0.98;;;;;;;;;;5009608;28;20030;-49
2021/05/28 13:05:32;;;;;;;0.60;0.60;;;;;;;;;;5008510;28;20671;-50
2021/05/28 13:07:58;;;;;;;2.60;0.60;;;;;;;;;;5010481;28;20105;-50
2021/05/28 13:10:25;;;;;;;1.35;0.80;;;;;;;;;;5014353;28;20033;-50
2021/05/28 13:12:51;;;;;;;0.68;0.68;;;;;;;;;;5013400;28;20034;-49
2021/05/28 13:15:25;;;;;;;1.52;0.77;;;;;;;;;;5013161;28;20029;-52
2021/05/28 13:17:55;;;;;;;0.93;0.50;;;;;;;;;;5010991;28;20076;-48
2021/05/28 13:20:23;;;;;;;1.58;0.80;;;;;;;;;;5015942;28;20029;-48
2021/05/28 13:22:50;;;;;;;0.70;0.60;;;;;;;;;;5010510;28;20026;-51
2021/05/28 13:25:33;;;;;;;0.80;0.50;;;;;;;;;;5009718;28;20039;-50
2021/05/28 13:28:01;;;;;;;2.65;0.60;;;;;;;;;;5021131;28;20037;-53
2021/05/28 13:30:31;;;;;;;1.60;0.47;;;;;;;;;;5008840;28;20133;-51
2021/05/28 13:33:10;;;;;;;2.35;0.70;;;;;;;;;;5012097;28;20045;-51
2021/05/28 13:35:36;;;;;;;0.77;0.57;;;;;;;;;;5013477;28;20144;-48
2021/05/28 13:38:02;;;;;;;3.63;0.68;;;;;;;;;;5013493;28;20029;-51
2021/05/28 13:40:28;;;;;;;2.15;0.80;;;;;;;;;;5014064;28;20061;-51
2021/05/28 13:42:54;;;;;;;1.30;0.85;;;;;;;;;;5020038;28;20037;-49
2021/05/28 13:45:20;;;;;;;1.23;0.50;;;;;;;;;;5022008;28;20025;-51
2021/05/28 13:47:46;;;;;;;1.42;0.60;;;;;;;;;;5018172;28;20147;-54
2021/05/28 13:50:13;;;;;;;1.13;0.70;;;;;;;;;;5021375;28;20113;-48
2021/05/28 13:52:39;;;;;;;1.58;0.63;;;;;;;;;;5022373;28;20033;-49
2021/05/28 13:55:06;;;;;;;1.25;0.70;;;;;;;;;;5020318;28;20026;-48
2021/05/28 13:57:32;;;;;;;1.13;0.60;;;;;;;;;;5018534;28;20454;-50
2021/05/28 13:59:58;;;;;;;0.75;0.57;;;;;;;;;;5018157;28;20591;-48
2021/05/28 14:02:24;;;;;;;1.80;1.00;;;;;;;;;;5015617;28;20038;-50
2021/05/28 14:04:50;;;;;;;1.50;0.80;;;;;;;;;;5008899;28;20026;-49
2021/05/28 14:07:16;;;;;;;1.40;0.90;;;;;;;;;;5017734;28;20441;-49
2021/05/28 14:09:42;;;;;;;3.20;0.93;;;;;;;;;;5019193;28;20182;-48
2021/05/28 14:12:08;;;;;;;2.72;0.77;;;;;;;;;;5013466;28;20477;-48
2021/05/28 14:14:35;;;;;;;1.48;0.80;;;;;;;;;;5021256;28;20041;-50
2021/05/28 14:17:01;;;;;;;5.10;0.80;;;;;;;;;;5011001;28;20037;-51
2021/05/28 14:19:27;;;;;;;1.45;0.73;;;;;;;;;;5014372;28;20030;-53
2021/05/28 14:21:53;;;;;;;1.65;0.80;;;;;;;;;;5012540;28;20374;-48
2021/05/28 14:24:19;;;;;;;3.35;0.75;;;;;;;;;;5016121;28;20030;-51
2021/05/28 14:26:45;;;;;;;1.02;0.68;;;;;;;;;;5009207;28;20030;-50
2021/05/28 14:29:11;;;;;;;2.83;0.80;;;;;;;;;;5006430;28;20026;-53
2021/05/28 14:31:37;;;;;;;4.00;0.70;;;;;;;;;;5024460;28;20041;-54
2021/05/28 14:34:03;;;;;;;0.70;0.55;;;;;;;;;;5020978;28;20033;-50
2021/05/28 14:36:30;;;;;;;0.75;0.40;;;;;;;;;;5015365;28;20028;-53
2021/05/28 14:38:56;;;;;;;0.90;0.70;;;;;;;;;;5013040;28;20101;-51
2021/05/28 14:41:22;;;;;;;1.35;0.70;;;;;;;;;;5020734;28;20019;-50
2021/05/28 14:43:49;;;;;;;1.83;0.60;;;;;;;;;;5014864;28;20065;-49
2021/05/28 14:46:15;;;;;;;0.75;0.50;;;;;;;;;;5008148;28;20583;-50